sensor_id;sensor_type;location;lat;lon;timestamp;P1;durP1;ratioP1;P2;durP2;ratioP2
20976;SDS011;10647;51.016;3.720;2022-10-28T00:01:51;13.88;;;4.72;;
20976;SDS011;10647;51.016;3.720;2022-10-28T00:04:19;13.00;;;3.95;;
20976;SDS011;10647;51.016;3.720;2022-10-28T00:06:52;12.10;;;4.22;;
20976;SDS011;10647;51.016;3.720;2022-10-28T00:09:20;9.68;;;3.72;;
20976;SDS011;10647;51.016;3.720;2022-10-28T00:11:49;12.47;;;3.80;;
20976;SDS011;10647;51.016;3.720;2022-10-28T00:14:22;13.43;;;4.12;;
20976;SDS011;10647;51.016;3.720;2022-10-28T00:16:51;14.10;;;4.10;;
20976;SDS011;10647;51.016;3.720;2022-10-28T00:19:25;13.30;;;4.17;;
20976;SDS011;10647;51.016;3.720;2022-10-28T00:21:58;11.73;;;4.03;;
20976;SDS011;10647;51.016;3.720;2022-10-28T00:24:26;12.58;;;3.90;;
20976;SDS011;10647;51.016;3.720;2022-10-28T00:26:54;8.33;;;3.60;;
20976;SDS011;10647;51.016;3.720;2022-10-28T00:29:21;12.60;;;4.30;;
20976;SDS011;10647;51.016;3.720;2022-10-28T00:31:52;12.13;;;3.47;;
20976;SDS011;10647;51.016;3.720;2022-10-28T00:34:20;12.53;;;3.65;;
20976;SDS011;10647;51.016;3.720;2022-10-28T00:36:49;11.97;;;3.52;;
20976;SDS011;10647;51.016;3.720;2022-10-28T00:39:19;12.18;;;3.70;;
20976;SDS011;10647;51.016;3.720;2022-10-28T00:41:52;11.90;;;3.72;;
20976;SDS011;10647;51.016;3.720;2022-10-28T00:44:39;9.60;;;3.72;;
20976;SDS011;10647;51.016;3.720;2022-10-28T00:47:30;13.28;;;3.30;;
20976;SDS011;10647;51.016;3.720;2022-10-28T00:50:02;10.28;;;3.52;;
20976;SDS011;10647;51.016;3.720;2022-10-28T00:52:30;16.12;;;3.80;;
20976;SDS011;10647;51.016;3.720;2022-10-28T00:54:59;12.50;;;3.52;;
20976;SDS011;10647;51.016;3.720;2022-10-28T00:57:30;13.48;;;3.10;;
20976;SDS011;10647;51.016;3.720;2022-10-28T01:00:00;17.15;;;3.75;;
20976;SDS011;10647;51.016;3.720;2022-10-28T01:02:33;13.05;;;4.17;;
20976;SDS011;10647;51.016;3.720;2022-10-28T01:05:04;12.75;;;3.55;;
20976;SDS011;10647;51.016;3.720;2022-10-28T01:07:49;14.98;;;3.80;;
20976;SDS011;10647;51.016;3.720;2022-10-28T01:13:38;9.20;;;3.67;;
20976;SDS011;10647;51.016;3.720;2022-10-28T01:16:15;11.85;;;3.37;;
20976;SDS011;10647;51.016;3.720;2022-10-28T01:33:13;16.53;;;4.27;;
20976;SDS011;10647;51.016;3.720;2022-10-28T01:35:56;13.27;;;3.80;;
20976;SDS011;10647;51.016;3.720;2022-10-28T01:38:32;16.37;;;3.83;;
20976;SDS011;10647;51.016;3.720;2022-10-28T01:50:42;8.95;;;3.45;;
20976;SDS011;10647;51.016;3.720;2022-10-28T01:52:37;13.90;;;4.00;;
20976;SDS011;10647;51.016;3.720;2022-10-28T02:00:58;12.03;;;3.62;;
20976;SDS011;10647;51.016;3.720;2022-10-28T02:03:28;8.70;;;3.67;;
20976;SDS011;10647;51.016;3.720;2022-10-28T02:05:57;17.55;;;4.20;;
20976;SDS011;10647;51.016;3.720;2022-10-28T02:08:47;17.00;;;3.60;;
20976;SDS011;10647;51.016;3.720;2022-10-28T02:14:30;13.10;;;3.83;;
20976;SDS011;10647;51.016;3.720;2022-10-28T02:20:05;17.82;;;3.62;;
20976;SDS011;10647;51.016;3.720;2022-10-28T02:25:32;12.73;;;3.50;;
20976;SDS011;10647;51.016;3.720;2022-10-28T02:30:54;13.90;;;3.80;;
20976;SDS011;10647;51.016;3.720;2022-10-28T02:33:34;8.65;;;3.60;;
20976;SDS011;10647;51.016;3.720;2022-10-28T02:39:07;14.15;;;3.90;;
20976;SDS011;10647;51.016;3.720;2022-10-28T02:41:42;12.40;;;3.98;;
20976;SDS011;10647;51.016;3.720;2022-10-28T02:44:43;18.90;;;4.12;;
20976;SDS011;10647;51.016;3.720;2022-10-28T02:47:18;12.63;;;4.10;;
20976;SDS011;10647;51.016;3.720;2022-10-28T02:49:54;10.00;;;4.45;;
20976;SDS011;10647;51.016;3.720;2022-10-28T02:52:24;15.65;;;4.05;;
20976;SDS011;10647;51.016;3.720;2022-10-28T02:57:34;9.70;;;3.70;;
20976;SDS011;10647;51.016;3.720;2022-10-28T03:00:08;12.63;;;4.10;;
20976;SDS011;10647;51.016;3.720;2022-10-28T03:05:14;14.25;;;4.10;;
20976;SDS011;10647;51.016;3.720;2022-10-28T03:07:44;11.38;;;3.98;;
20976;SDS011;10647;51.016;3.720;2022-10-28T03:13:05;9.35;;;3.85;;
20976;SDS011;10647;51.016;3.720;2022-10-28T03:15:33;14.53;;;3.42;;
20976;SDS011;10647;51.016;3.720;2022-10-28T03:18:00;11.73;;;3.70;;
20976;SDS011;10647;51.016;3.720;2022-10-28T03:23:01;13.32;;;3.87;;
20976;SDS011;10647;51.016;3.720;2022-10-28T03:25:28;14.50;;;4.47;;
20976;SDS011;10647;51.016;3.720;2022-10-28T03:27:56;10.82;;;3.30;;
20976;SDS011;10647;51.016;3.720;2022-10-28T03:30:29;14.53;;;4.10;;
20976;SDS011;10647;51.016;3.720;2022-10-28T03:32:57;13.93;;;4.33;;
20976;SDS011;10647;51.016;3.720;2022-10-28T03:35:25;16.65;;;3.70;;
20976;SDS011;10647;51.016;3.720;2022-10-28T03:37:59;15.50;;;3.97;;
20976;SDS011;10647;51.016;3.720;2022-10-28T03:40:29;13.83;;;3.80;;
20976;SDS011;10647;51.016;3.720;2022-10-28T03:42:57;13.90;;;3.95;;
20976;SDS011;10647;51.016;3.720;2022-10-28T03:45:30;13.40;;;3.58;;
20976;SDS011;10647;51.016;3.720;2022-10-28T03:48:05;12.45;;;4.10;;
20976;SDS011;10647;51.016;3.720;2022-10-28T03:50:34;16.23;;;3.67;;
20976;SDS011;10647;51.016;3.720;2022-10-28T03:53:08;12.13;;;4.05;;
20976;SDS011;10647;51.016;3.720;2022-10-28T03:55:36;17.37;;;4.17;;
20976;SDS011;10647;51.016;3.720;2022-10-28T03:58:13;30.35;;;10.80;;
20976;SDS011;10647;51.016;3.720;2022-10-28T04:03:16;54.80;;;18.20;;
20976;SDS011;10647;51.016;3.720;2022-10-28T04:05:48;51.50;;;17.00;;
20976;SDS011;10647;51.016;3.720;2022-10-28T04:08:16;68.75;;;18.67;;
20976;SDS011;10647;51.016;3.720;2022-10-28T04:10:48;56.33;;;18.87;;
20976;SDS011;10647;51.016;3.720;2022-10-28T04:13:16;57.10;;;18.00;;
20976;SDS011;10647;51.016;3.720;2022-10-28T04:18:31;68.60;;;22.17;;
20976;SDS011;10647;51.016;3.720;2022-10-28T04:21:00;82.63;;;25.87;;
20976;SDS011;10647;51.016;3.720;2022-10-28T04:23:28;86.90;;;29.83;;
20976;SDS011;10647;51.016;3.720;2022-10-28T04:25:55;86.28;;;27.80;;
20976;SDS011;10647;51.016;3.720;2022-10-28T04:28:23;59.13;;;18.77;;
20976;SDS011;10647;51.016;3.720;2022-10-28T04:30:50;44.30;;;12.90;;
20976;SDS011;10647;51.016;3.720;2022-10-28T04:33:18;18.07;;;6.20;;
20976;SDS011;10647;51.016;3.720;2022-10-28T04:35:45;19.33;;;6.23;;
20976;SDS011;10647;51.016;3.720;2022-10-28T04:38:13;15.80;;;5.23;;
20976;SDS011;10647;51.016;3.720;2022-10-28T04:40:40;15.00;;;5.00;;
20976;SDS011;10647;51.016;3.720;2022-10-28T04:43:08;15.27;;;4.93;;
20976;SDS011;10647;51.016;3.720;2022-10-28T04:45:36;14.60;;;5.10;;
20976;SDS011;10647;51.016;3.720;2022-10-28T04:48:04;14.90;;;4.97;;
20976;SDS011;10647;51.016;3.720;2022-10-28T04:50:32;16.03;;;4.90;;
20976;SDS011;10647;51.016;3.720;2022-10-28T04:53:00;13.43;;;4.90;;
20976;SDS011;10647;51.016;3.720;2022-10-28T04:55:28;19.30;;;5.08;;
20976;SDS011;10647;51.016;3.720;2022-10-28T04:57:56;16.80;;;4.80;;
20976;SDS011;10647;51.016;3.720;2022-10-28T05:00:25;15.90;;;4.93;;
20976;SDS011;10647;51.016;3.720;2022-10-28T05:02:54;13.43;;;4.37;;
20976;SDS011;10647;51.016;3.720;2022-10-28T05:05:22;13.93;;;4.77;;
20976;SDS011;10647;51.016;3.720;2022-10-28T05:07:50;18.80;;;5.03;;
20976;SDS011;10647;51.016;3.720;2022-10-28T05:10:18;25.00;;;5.33;;
20976;SDS011;10647;51.016;3.720;2022-10-28T05:12:45;14.63;;;4.60;;
20976;SDS011;10647;51.016;3.720;2022-10-28T05:15:13;14.77;;;4.90;;
20976;SDS011;10647;51.016;3.720;2022-10-28T05:17:44;20.13;;;4.90;;
20976;SDS011;10647;51.016;3.720;2022-10-28T05:20:14;19.40;;;6.30;;
20976;SDS011;10647;51.016;3.720;2022-10-28T05:22:46;33.67;;;10.30;;
20976;SDS011;10647;51.016;3.720;2022-10-28T05:25:15;33.20;;;9.53;;
20976;SDS011;10647;51.016;3.720;2022-10-28T05:27:43;25.93;;;9.23;;
20976;SDS011;10647;51.016;3.720;2022-10-28T05:30:10;46.87;;;14.70;;
20976;SDS011;10647;51.016;3.720;2022-10-28T05:32:39;59.40;;;18.10;;
20976;SDS011;10647;51.016;3.720;2022-10-28T05:35:07;64.43;;;20.73;;
20976;SDS011;10647;51.016;3.720;2022-10-28T05:37:35;66.63;;;21.23;;
20976;SDS011;10647;51.016;3.720;2022-10-28T05:40:03;61.77;;;17.47;;
20976;SDS011;10647;51.016;3.720;2022-10-28T05:42:31;53.83;;;17.00;;
20976;SDS011;10647;51.016;3.720;2022-10-28T05:44:58;57.23;;;18.47;;
20976;SDS011;10647;51.016;3.720;2022-10-28T05:47:26;54.33;;;16.10;;
20976;SDS011;10647;51.016;3.720;2022-10-28T05:49:53;61.50;;;19.53;;
20976;SDS011;10647;51.016;3.720;2022-10-28T05:52:21;85.27;;;26.37;;
20976;SDS011;10647;51.016;3.720;2022-10-28T05:54:50;98.27;;;28.53;;
20976;SDS011;10647;51.016;3.720;2022-10-28T05:57:18;70.75;;;19.30;;
20976;SDS011;10647;51.016;3.720;2022-10-28T05:59:49;54.87;;;14.20;;
20976;SDS011;10647;51.016;3.720;2022-10-28T06:02:16;49.83;;;12.47;;
20976;SDS011;10647;51.016;3.720;2022-10-28T06:04:44;38.47;;;11.17;;
20976;SDS011;10647;51.016;3.720;2022-10-28T06:07:11;37.33;;;8.47;;
20976;SDS011;10647;51.016;3.720;2022-10-28T06:09:39;29.70;;;6.57;;
20976;SDS011;10647;51.016;3.720;2022-10-28T06:12:06;25.47;;;6.57;;
20976;SDS011;10647;51.016;3.720;2022-10-28T06:14:34;27.57;;;6.07;;
20976;SDS011;10647;51.016;3.720;2022-10-28T06:17:01;22.40;;;5.80;;
20976;SDS011;10647;51.016;3.720;2022-10-28T06:19:29;32.57;;;6.83;;
20976;SDS011;10647;51.016;3.720;2022-10-28T06:21:57;45.07;;;12.60;;
20976;SDS011;10647;51.016;3.720;2022-10-28T06:24:24;64.60;;;17.47;;
20976;SDS011;10647;51.016;3.720;2022-10-28T06:26:52;72.10;;;19.53;;
20976;SDS011;10647;51.016;3.720;2022-10-28T06:29:19;59.93;;;16.67;;
20976;SDS011;10647;51.016;3.720;2022-10-28T06:31:47;68.63;;;19.00;;
20976;SDS011;10647;51.016;3.720;2022-10-28T06:34:14;57.17;;;14.73;;
20976;SDS011;10647;51.016;3.720;2022-10-28T06:36:42;43.03;;;11.50;;
20976;SDS011;10647;51.016;3.720;2022-10-28T06:39:10;36.27;;;9.07;;
20976;SDS011;10647;51.016;3.720;2022-10-28T06:41:37;31.00;;;9.20;;
20976;SDS011;10647;51.016;3.720;2022-10-28T06:44:05;32.00;;;11.70;;
20976;SDS011;10647;51.016;3.720;2022-10-28T06:46:32;46.77;;;14.37;;
20976;SDS011;10647;51.016;3.720;2022-10-28T06:49:00;55.30;;;18.60;;
20976;SDS011;10647;51.016;3.720;2022-10-28T06:51:29;59.10;;;19.40;;
20976;SDS011;10647;51.016;3.720;2022-10-28T06:53:57;49.42;;;16.00;;
20976;SDS011;10647;51.016;3.720;2022-10-28T06:56:24;65.57;;;20.53;;
20976;SDS011;10647;51.016;3.720;2022-10-28T06:58:52;45.97;;;16.67;;
20976;SDS011;10647;51.016;3.720;2022-10-28T07:01:26;29.00;;;9.13;;
20976;SDS011;10647;51.016;3.720;2022-10-28T07:03:54;35.90;;;11.17;;
20976;SDS011;10647;51.016;3.720;2022-10-28T07:06:21;26.23;;;8.10;;
20976;SDS011;10647;51.016;3.720;2022-10-28T07:08:50;23.20;;;6.75;;
20976;SDS011;10647;51.016;3.720;2022-10-28T07:11:17;17.15;;;4.83;;
20976;SDS011;10647;51.016;3.720;2022-10-28T07:13:45;14.40;;;4.83;;
20976;SDS011;10647;51.016;3.720;2022-10-28T07:16:12;17.42;;;4.97;;
20976;SDS011;10647;51.016;3.720;2022-10-28T07:18:40;17.90;;;5.27;;
20976;SDS011;10647;51.016;3.720;2022-10-28T07:21:07;14.13;;;4.97;;
20976;SDS011;10647;51.016;3.720;2022-10-28T07:23:35;10.95;;;4.22;;
20976;SDS011;10647;51.016;3.720;2022-10-28T07:26:02;15.03;;;4.37;;
20976;SDS011;10647;51.016;3.720;2022-10-28T07:28:30;19.50;;;4.97;;
20976;SDS011;10647;51.016;3.720;2022-10-28T07:31:00;16.30;;;5.97;;
20976;SDS011;10647;51.016;3.720;2022-10-28T07:33:28;16.07;;;5.17;;
20976;SDS011;10647;51.016;3.720;2022-10-28T07:35:56;19.02;;;5.45;;
20976;SDS011;10647;51.016;3.720;2022-10-28T07:38:24;24.00;;;6.53;;
20976;SDS011;10647;51.016;3.720;2022-10-28T07:40:51;19.42;;;6.17;;
20976;SDS011;10647;51.016;3.720;2022-10-28T07:43:19;20.95;;;5.70;;
20976;SDS011;10647;51.016;3.720;2022-10-28T07:45:46;15.35;;;5.00;;
20976;SDS011;10647;51.016;3.720;2022-10-28T07:48:15;16.05;;;4.95;;
20976;SDS011;10647;51.016;3.720;2022-10-28T07:50:42;26.57;;;7.15;;
20976;SDS011;10647;51.016;3.720;2022-10-28T07:53:10;16.52;;;5.75;;
20976;SDS011;10647;51.016;3.720;2022-10-28T07:55:37;20.65;;;5.17;;
20976;SDS011;10647;51.016;3.720;2022-10-28T07:58:05;29.07;;;10.55;;
20976;SDS011;10647;51.016;3.720;2022-10-28T08:00:32;29.65;;;9.15;;
20976;SDS011;10647;51.016;3.720;2022-10-28T08:03:01;18.87;;;6.33;;
20976;SDS011;10647;51.016;3.720;2022-10-28T08:05:28;12.98;;;5.15;;
20976;SDS011;10647;51.016;3.720;2022-10-28T08:07:56;16.32;;;4.75;;
20976;SDS011;10647;51.016;3.720;2022-10-28T08:10:23;22.40;;;5.03;;
20976;SDS011;10647;51.016;3.720;2022-10-28T08:12:54;15.23;;;4.85;;
20976;SDS011;10647;51.016;3.720;2022-10-28T08:15:24;11.25;;;4.50;;
20976;SDS011;10647;51.016;3.720;2022-10-28T08:17:52;19.50;;;4.50;;
20976;SDS011;10647;51.016;3.720;2022-10-28T08:20:20;15.95;;;4.37;;
20976;SDS011;10647;51.016;3.720;2022-10-28T08:22:48;17.48;;;4.50;;
20976;SDS011;10647;51.016;3.720;2022-10-28T08:25:15;18.23;;;4.40;;
20976;SDS011;10647;51.016;3.720;2022-10-28T08:27:43;16.75;;;4.35;;
20976;SDS011;10647;51.016;3.720;2022-10-28T08:30:10;20.05;;;4.28;;
20976;SDS011;10647;51.016;3.720;2022-10-28T08:32:38;21.15;;;4.37;;
20976;SDS011;10647;51.016;3.720;2022-10-28T08:35:06;19.82;;;4.85;;
20976;SDS011;10647;51.016;3.720;2022-10-28T08:37:34;22.60;;;4.85;;
20976;SDS011;10647;51.016;3.720;2022-10-28T08:40:03;16.20;;;4.75;;
20976;SDS011;10647;51.016;3.720;2022-10-28T08:42:45;14.40;;;4.60;;
20976;SDS011;10647;51.016;3.720;2022-10-28T08:47:50;12.70;;;4.08;;
20976;SDS011;10647;51.016;3.720;2022-10-28T08:50:18;14.73;;;4.17;;
20976;SDS011;10647;51.016;3.720;2022-10-28T08:52:50;19.00;;;4.12;;
20976;SDS011;10647;51.016;3.720;2022-10-28T08:55:23;16.60;;;4.15;;
20976;SDS011;10647;51.016;3.720;2022-10-28T08:57:57;13.70;;;3.83;;
20976;SDS011;10647;51.016;3.720;2022-10-28T09:00:27;15.70;;;4.08;;
20976;SDS011;10647;51.016;3.720;2022-10-28T09:05:31;13.48;;;3.62;;
20976;SDS011;10647;51.016;3.720;2022-10-28T09:07:59;16.55;;;4.20;;
20976;SDS011;10647;51.016;3.720;2022-10-28T09:10:41;24.77;;;4.42;;
20976;SDS011;10647;51.016;3.720;2022-10-28T09:13:05;21.23;;;4.40;;
20976;SDS011;10647;51.016;3.720;2022-10-28T09:18:12;14.53;;;3.92;;
20976;SDS011;10647;51.016;3.720;2022-10-28T09:20:42;20.88;;;3.80;;
20976;SDS011;10647;51.016;3.720;2022-10-28T09:23:31;15.83;;;4.20;;
20976;SDS011;10647;51.016;3.720;2022-10-28T09:31:32;15.23;;;3.92;;
20976;SDS011;10647;51.016;3.720;2022-10-28T09:34:21;17.23;;;4.10;;
20976;SDS011;10647;51.016;3.720;2022-10-28T09:37:00;12.82;;;3.42;;
20976;SDS011;10647;51.016;3.720;2022-10-28T09:39:29;16.05;;;3.58;;
20976;SDS011;10647;51.016;3.720;2022-10-28T09:42:04;11.60;;;3.80;;
20976;SDS011;10647;51.016;3.720;2022-10-28T09:47:15;11.45;;;3.90;;
20976;SDS011;10647;51.016;3.720;2022-10-28T09:50:00;13.72;;;3.35;;
20976;SDS011;10647;51.016;3.720;2022-10-28T09:52:33;13.72;;;3.75;;
20976;SDS011;10647;51.016;3.720;2022-10-28T09:55:05;15.50;;;3.58;;
20976;SDS011;10647;51.016;3.720;2022-10-28T09:57:33;15.80;;;3.50;;
20976;SDS011;10647;51.016;3.720;2022-10-28T10:00:00;16.10;;;4.25;;
20976;SDS011;10647;51.016;3.720;2022-10-28T10:02:29;17.92;;;4.50;;
20976;SDS011;10647;51.016;3.720;2022-10-28T10:05:00;17.87;;;4.37;;
20976;SDS011;10647;51.016;3.720;2022-10-28T10:10:21;16.52;;;4.10;;
20976;SDS011;10647;51.016;3.720;2022-10-28T10:12:38;17.87;;;3.80;;
20976;SDS011;10647;51.016;3.720;2022-10-28T10:15:07;24.15;;;4.15;;
20976;SDS011;10647;51.016;3.720;2022-10-28T10:17:42;20.23;;;4.65;;
20976;SDS011;10647;51.016;3.720;2022-10-28T10:20:09;15.00;;;4.10;;
20976;SDS011;10647;51.016;3.720;2022-10-28T10:22:41;17.00;;;4.20;;
20976;SDS011;10647;51.016;3.720;2022-10-28T10:27:50;12.43;;;3.90;;
20976;SDS011;10647;51.016;3.720;2022-10-28T10:30:33;14.45;;;4.00;;
20976;SDS011;10647;51.016;3.720;2022-10-28T10:33:03;12.00;;;3.75;;
20976;SDS011;10647;51.016;3.720;2022-10-28T10:35:33;18.17;;;4.10;;
20976;SDS011;10647;51.016;3.720;2022-10-28T10:38:04;16.93;;;4.55;;
20976;SDS011;10647;51.016;3.720;2022-10-28T10:40:33;14.15;;;3.92;;
20976;SDS011;10647;51.016;3.720;2022-10-28T10:46:00;16.30;;;4.12;;
20976;SDS011;10647;51.016;3.720;2022-10-28T10:48:34;18.62;;;3.72;;
20976;SDS011;10647;51.016;3.720;2022-10-28T10:51:10;11.35;;;3.83;;
20976;SDS011;10647;51.016;3.720;2022-10-28T10:53:34;14.07;;;4.28;;
20976;SDS011;10647;51.016;3.720;2022-10-28T10:56:04;18.10;;;3.92;;
20976;SDS011;10647;51.016;3.720;2022-10-28T10:58:38;14.47;;;3.62;;
20976;SDS011;10647;51.016;3.720;2022-10-28T11:01:08;16.52;;;3.67;;
20976;SDS011;10647;51.016;3.720;2022-10-28T11:03:50;15.13;;;4.22;;
20976;SDS011;10647;51.016;3.720;2022-10-28T11:06:10;17.85;;;4.60;;
20976;SDS011;10647;51.016;3.720;2022-10-28T11:08:42;19.52;;;4.60;;
20976;SDS011;10647;51.016;3.720;2022-10-28T11:14:01;20.27;;;4.15;;
20976;SDS011;10647;51.016;3.720;2022-10-28T11:18:52;14.28;;;3.70;;
20976;SDS011;10647;51.016;3.720;2022-10-28T11:21:35;15.10;;;4.33;;
20976;SDS011;10647;51.016;3.720;2022-10-28T11:27:33;19.30;;;4.20;;
20976;SDS011;10647;51.016;3.720;2022-10-28T11:30:09;15.90;;;4.08;;
20976;SDS011;10647;51.016;3.720;2022-10-28T11:33:03;13.93;;;4.25;;
20976;SDS011;10647;51.016;3.720;2022-10-28T11:35:37;15.93;;;4.05;;
20976;SDS011;10647;51.016;3.720;2022-10-28T11:43:53;16.40;;;4.20;;
20976;SDS011;10647;51.016;3.720;2022-10-28T12:00:39;17.65;;;4.37;;
20976;SDS011;10647;51.016;3.720;2022-10-28T12:03:18;17.62;;;4.15;;
20976;SDS011;10647;51.016;3.720;2022-10-28T12:05:59;16.85;;;4.40;;
20976;SDS011;10647;51.016;3.720;2022-10-28T12:16:32;12.78;;;3.83;;
20976;SDS011;10647;51.016;3.720;2022-10-28T12:19:03;17.77;;;4.70;;
20976;SDS011;10647;51.016;3.720;2022-10-28T12:21:50;16.50;;;4.50;;
20976;SDS011;10647;51.016;3.720;2022-10-28T12:24:34;16.12;;;4.37;;
20976;SDS011;10647;51.016;3.720;2022-10-28T12:27:24;16.40;;;4.28;;
20976;SDS011;10647;51.016;3.720;2022-10-28T12:29:54;22.13;;;4.50;;
20976;SDS011;10647;51.016;3.720;2022-10-28T12:32:31;18.32;;;4.60;;
20976;SDS011;10647;51.016;3.720;2022-10-28T12:35:05;16.85;;;3.90;;
20976;SDS011;10647;51.016;3.720;2022-10-28T12:37:37;12.75;;;3.83;;
20976;SDS011;10647;51.016;3.720;2022-10-28T12:40:19;13.08;;;3.95;;
20976;SDS011;10647;51.016;3.720;2022-10-28T12:45:33;17.27;;;4.33;;
20976;SDS011;10647;51.016;3.720;2022-10-28T12:48:05;19.52;;;4.30;;
20976;SDS011;10647;51.016;3.720;2022-10-28T12:50:38;12.18;;;3.87;;
20976;SDS011;10647;51.016;3.720;2022-10-28T12:53:23;16.25;;;4.22;;
20976;SDS011;10647;51.016;3.720;2022-10-28T12:56:08;19.60;;;4.67;;
20976;SDS011;10647;51.016;3.720;2022-10-28T12:58:40;19.48;;;4.00;;
20976;SDS011;10647;51.016;3.720;2022-10-28T13:01:10;15.60;;;3.90;;
20976;SDS011;10647;51.016;3.720;2022-10-28T13:03:39;15.30;;;3.92;;
20976;SDS011;10647;51.016;3.720;2022-10-28T13:19:54;12.00;;;3.92;;
20976;SDS011;10647;51.016;3.720;2022-10-28T13:28:18;17.57;;;3.95;;
20976;SDS011;10647;51.016;3.720;2022-10-28T13:30:59;12.43;;;4.42;;
20976;SDS011;10647;51.016;3.720;2022-10-28T13:38:57;19.00;;;4.75;;
20976;SDS011;10647;51.016;3.720;2022-10-28T13:41:34;14.50;;;4.62;;
20976;SDS011;10647;51.016;3.720;2022-10-28T13:44:12;17.67;;;4.47;;
20976;SDS011;10647;51.016;3.720;2022-10-28T13:49:38;14.55;;;4.30;;
20976;SDS011;10647;51.016;3.720;2022-10-28T14:00:32;11.88;;;4.03;;
20976;SDS011;10647;51.016;3.720;2022-10-28T14:02:47;18.05;;;4.30;;
20976;SDS011;10647;51.016;3.720;2022-10-28T14:08:02;12.43;;;3.87;;
20976;SDS011;10647;51.016;3.720;2022-10-28T14:10:36;15.00;;;5.00;;
20976;SDS011;10647;51.016;3.720;2022-10-28T14:13:16;15.03;;;4.47;;
20976;SDS011;10647;51.016;3.720;2022-10-28T14:15:45;14.63;;;4.67;;
20976;SDS011;10647;51.016;3.720;2022-10-28T14:26:02;11.00;;;4.10;;
20976;SDS011;10647;51.016;3.720;2022-10-28T14:36:29;13.25;;;3.72;;
20976;SDS011;10647;51.016;3.720;2022-10-28T14:52:44;17.50;;;3.50;;
20976;SDS011;10647;51.016;3.720;2022-10-28T14:55:24;16.97;;;3.25;;
20976;SDS011;10647;51.016;3.720;2022-10-28T14:58:10;12.40;;;3.25;;
20976;SDS011;10647;51.016;3.720;2022-10-28T15:00:41;11.10;;;2.98;;
20976;SDS011;10647;51.016;3.720;2022-10-28T15:03:10;13.48;;;3.22;;
20976;SDS011;10647;51.016;3.720;2022-10-28T15:05:38;9.20;;;3.10;;
20976;SDS011;10647;51.016;3.720;2022-10-28T15:08:07;11.70;;;3.12;;
20976;SDS011;10647;51.016;3.720;2022-10-28T15:10:36;13.62;;;2.80;;
20976;SDS011;10647;51.016;3.720;2022-10-28T15:13:03;12.80;;;3.65;;
20976;SDS011;10647;51.016;3.720;2022-10-28T15:15:32;14.53;;;3.60;;
20976;SDS011;10647;51.016;3.720;2022-10-28T15:18:00;13.05;;;3.35;;
20976;SDS011;10647;51.016;3.720;2022-10-28T15:20:32;11.22;;;3.25;;
20976;SDS011;10647;51.016;3.720;2022-10-28T15:23:12;10.95;;;3.20;;
20976;SDS011;10647;51.016;3.720;2022-10-28T15:26:03;9.73;;;3.08;;
20976;SDS011;10647;51.016;3.720;2022-10-28T15:28:35;13.00;;;3.30;;
20976;SDS011;10647;51.016;3.720;2022-10-28T15:31:05;16.30;;;3.80;;
20976;SDS011;10647;51.016;3.720;2022-10-28T15:33:37;16.02;;;3.58;;
20976;SDS011;10647;51.016;3.720;2022-10-28T15:38:47;15.23;;;4.05;;
20976;SDS011;10647;51.016;3.720;2022-10-28T15:43:55;15.30;;;3.87;;
20976;SDS011;10647;51.016;3.720;2022-10-28T15:46:25;14.00;;;3.40;;
20976;SDS011;10647;51.016;3.720;2022-10-28T15:48:57;14.45;;;3.47;;
20976;SDS011;10647;51.016;3.720;2022-10-28T15:51:28;13.85;;;3.55;;
20976;SDS011;10647;51.016;3.720;2022-10-28T15:54:17;11.05;;;3.22;;
20976;SDS011;10647;51.016;3.720;2022-10-28T15:56:56;14.15;;;3.70;;
20976;SDS011;10647;51.016;3.720;2022-10-28T15:59:24;10.10;;;3.20;;
20976;SDS011;10647;51.016;3.720;2022-10-28T16:01:55;12.53;;;3.70;;
20976;SDS011;10647;51.016;3.720;2022-10-28T16:07:11;21.05;;;3.60;;
20976;SDS011;10647;51.016;3.720;2022-10-28T16:09:42;15.13;;;3.70;;
20976;SDS011;10647;51.016;3.720;2022-10-28T16:12:19;13.58;;;3.77;;
20976;SDS011;10647;51.016;3.720;2022-10-28T16:14:56;13.93;;;3.85;;
20976;SDS011;10647;51.016;3.720;2022-10-28T16:17:26;11.22;;;4.10;;
20976;SDS011;10647;51.016;3.720;2022-10-28T16:22:43;15.03;;;3.58;;
20976;SDS011;10647;51.016;3.720;2022-10-28T16:25:16;17.23;;;3.75;;
20976;SDS011;10647;51.016;3.720;2022-10-28T16:27:46;10.15;;;3.67;;
20976;SDS011;10647;51.016;3.720;2022-10-28T16:30:19;13.95;;;3.80;;
20976;SDS011;10647;51.016;3.720;2022-10-28T16:32:47;10.32;;;3.60;;
20976;SDS011;10647;51.016;3.720;2022-10-28T16:35:16;12.78;;;3.45;;
20976;SDS011;10647;51.016;3.720;2022-10-28T16:37:46;17.10;;;4.15;;
20976;SDS011;10647;51.016;3.720;2022-10-28T16:40:14;14.40;;;4.00;;
20976;SDS011;10647;51.016;3.720;2022-10-28T16:42:42;14.63;;;4.17;;
20976;SDS011;10647;51.016;3.720;2022-10-28T16:45:14;17.73;;;3.80;;
20976;SDS011;10647;51.016;3.720;2022-10-28T16:47:43;14.75;;;3.60;;
20976;SDS011;10647;51.016;3.720;2022-10-28T16:50:11;16.10;;;3.80;;
20976;SDS011;10647;51.016;3.720;2022-10-28T16:52:40;16.42;;;3.90;;
20976;SDS011;10647;51.016;3.720;2022-10-28T16:57:44;14.23;;;4.20;;
20976;SDS011;10647;51.016;3.720;2022-10-28T17:00:12;13.28;;;3.65;;
20976;SDS011;10647;51.016;3.720;2022-10-28T17:02:45;14.80;;;4.42;;
20976;SDS011;10647;51.016;3.720;2022-10-28T17:05:19;13.93;;;3.95;;
20976;SDS011;10647;51.016;3.720;2022-10-28T17:07:48;16.12;;;3.90;;
20976;SDS011;10647;51.016;3.720;2022-10-28T17:10:23;16.30;;;4.58;;
20976;SDS011;10647;51.016;3.720;2022-10-28T17:12:52;14.63;;;3.55;;
20976;SDS011;10647;51.016;3.720;2022-10-28T17:15:22;17.85;;;3.90;;
20976;SDS011;10647;51.016;3.720;2022-10-28T17:17:52;14.98;;;4.20;;
20976;SDS011;10647;51.016;3.720;2022-10-28T17:20:19;17.37;;;3.65;;
20976;SDS011;10647;51.016;3.720;2022-10-28T17:22:48;13.80;;;3.42;;
20976;SDS011;10647;51.016;3.720;2022-10-28T17:27:50;11.55;;;3.60;;
20976;SDS011;10647;51.016;3.720;2022-10-28T17:30:19;20.43;;;4.10;;
20976;SDS011;10647;51.016;3.720;2022-10-28T17:32:50;14.05;;;3.75;;
20976;SDS011;10647;51.016;3.720;2022-10-28T17:35:19;13.25;;;3.80;;
20976;SDS011;10647;51.016;3.720;2022-10-28T17:37:48;13.65;;;4.03;;
20976;SDS011;10647;51.016;3.720;2022-10-28T17:40:15;16.02;;;4.62;;
20976;SDS011;10647;51.016;3.720;2022-10-28T17:42:43;18.55;;;3.98;;
20976;SDS011;10647;51.016;3.720;2022-10-28T17:45:10;10.98;;;3.72;;
20976;SDS011;10647;51.016;3.720;2022-10-28T17:47:38;11.70;;;3.60;;
20976;SDS011;10647;51.016;3.720;2022-10-28T17:50:05;15.58;;;3.95;;
20976;SDS011;10647;51.016;3.720;2022-10-28T17:52:34;16.55;;;3.72;;
20976;SDS011;10647;51.016;3.720;2022-10-28T17:55:03;17.75;;;4.53;;
20976;SDS011;10647;51.016;3.720;2022-10-28T17:57:31;15.50;;;4.22;;
20976;SDS011;10647;51.016;3.720;2022-10-28T17:59:58;13.32;;;3.85;;
20976;SDS011;10647;51.016;3.720;2022-10-28T18:02:25;13.13;;;4.60;;
20976;SDS011;10647;51.016;3.720;2022-10-28T18:04:53;12.07;;;4.25;;
20976;SDS011;10647;51.016;3.720;2022-10-28T18:07:21;17.23;;;4.53;;
20976;SDS011;10647;51.016;3.720;2022-10-28T18:09:48;16.12;;;3.72;;
20976;SDS011;10647;51.016;3.720;2022-10-28T18:12:18;12.10;;;4.00;;
20976;SDS011;10647;51.016;3.720;2022-10-28T18:14:45;15.45;;;4.08;;
20976;SDS011;10647;51.016;3.720;2022-10-28T18:17:13;19.95;;;4.83;;
20976;SDS011;10647;51.016;3.720;2022-10-28T18:19:43;12.73;;;4.22;;
20976;SDS011;10647;51.016;3.720;2022-10-28T18:22:10;17.90;;;4.40;;
20976;SDS011;10647;51.016;3.720;2022-10-28T18:24:38;14.15;;;4.72;;
20976;SDS011;10647;51.016;3.720;2022-10-28T18:27:11;21.10;;;4.85;;